createdAt,value
2017-08-27T07:18:03.664Z,27.93
2017-08-27T07:20:31.285Z,27.64
2017-08-27T07:22:58.808Z,27.67
2017-08-27T07:25:26.379Z,27.62
2017-08-27T07:27:53.877Z,27.40
2017-08-27T07:30:21.404Z,27.13
2017-08-27T07:32:48.988Z,27.03
2017-08-27T07:35:16.482Z,26.73
2017-08-27T07:37:43.999Z,26.72
2017-08-27T07:40:11.556Z,26.65
2017-08-27T07:42:39.093Z,26.60
2017-08-27T07:45:06.657Z,26.60
2017-08-27T07:47:34.178Z,26.62
2017-08-27T07:50:01.662Z,26.64
2017-08-27T07:52:29.223Z,26.67
2017-08-27T07:54:56.812Z,26.63
2017-08-27T07:57:24.370Z,26.66
2017-08-27T07:59:51.888Z,26.63
2017-08-27T08:02:19.473Z,26.61
2017-08-27T08:04:47.004Z,26.58
2017-08-27T08:07:14.510Z,26.47
2017-08-27T08:09:42.058Z,26.52
2017-08-27T08:12:09.579Z,26.52
2017-08-27T08:14:37.175Z,26.60
2017-08-27T08:17:04.748Z,26.40
2017-08-27T08:19:32.277Z,26.37
2017-08-27T08:21:59.760Z,26.29
2017-08-27T08:24:27.287Z,25.97
2017-08-27T08:26:54.807Z,25.87
2017-08-27T08:29:22.282Z,25.72
2017-08-27T08:31:49.804Z,25.67
2017-08-27T08:34:17.315Z,25.53
2017-08-27T08:36:44.831Z,25.28
2017-08-27T08:39:12.459Z,25.19
2017-08-27T08:41:40.040Z,24.96
2017-08-27T08:44:07.518Z,24.71
2017-08-27T08:46:35.076Z,24.37
2017-08-27T08:49:02.598Z,24.20
2017-08-27T08:54:22.927Z,23.72
2017-08-27T08:56:50.471Z,23.63
2017-08-27T08:59:18.000Z,23.63
2017-08-27T09:01:45.559Z,23.55
2017-08-27T09:04:13.116Z,23.64
2017-08-27T09:06:40.667Z,23.72
2017-08-27T09:09:08.193Z,23.77
2017-08-27T09:11:35.713Z,23.78
2017-08-27T09:16:56.549Z,23.12
2017-08-27T09:19:24.166Z,23.00
2017-08-27T09:21:51.646Z,22.88
2017-08-27T09:24:19.310Z,22.86
2017-08-27T09:26:46.869Z,22.67
2017-08-27T09:29:14.365Z,22.64
2017-08-27T09:31:41.949Z,22.37
2017-08-27T09:34:09.481Z,22.19
2017-08-27T09:36:36.968Z,22.16
2017-08-27T09:39:04.596Z,22.08
2017-08-27T09:41:32.121Z,22.05
2017-08-27T09:43:59.680Z,22.11
2017-08-27T09:46:27.245Z,22.11
2017-08-27T09:48:54.760Z,22.02
2017-08-27T09:51:22.564Z,20.74
2017-08-27T09:53:50.126Z,20.00
2017-08-27T09:56:17.672Z,20.20
2017-08-27T09:58:45.227Z,20.05
2017-08-27T10:01:12.746Z,20.15
2017-08-27T10:03:40.266Z,20.34
2017-08-27T10:06:08.548Z,20.38
2017-08-27T10:08:36.149Z,20.17
2017-08-27T10:11:03.661Z,18.15
2017-08-27T10:13:31.309Z,18.16
2017-08-27T10:15:58.907Z,18.15
2017-08-27T10:18:26.451Z,18.27
2017-08-27T10:20:53.977Z,18.51
2017-08-27T10:23:21.541Z,18.72
2017-08-27T10:25:49.098Z,18.87
2017-08-27T10:28:16.593Z,19.03
2017-08-27T10:30:44.194Z,19.08
2017-08-27T10:35:44.500Z,18.88
2017-08-27T10:38:12.034Z,18.66
2017-08-27T10:40:39.593Z,18.08
2017-08-27T10:43:07.149Z,18.21
2017-08-27T10:45:34.697Z,18.39
2017-08-27T10:48:02.254Z,18.72
2017-08-27T10:50:29.778Z,19.03
2017-08-27T10:52:57.270Z,19.28
2017-08-27T10:55:24.797Z,19.24
2017-08-27T10:57:52.360Z,19.38
2017-08-27T11:00:19.884Z,19.32
2017-08-27T11:02:47.440Z,19.41
2017-08-27T11:05:14.962Z,19.52
2017-08-27T11:07:42.508Z,19.54
2017-08-27T11:10:09.982Z,19.60
2017-08-27T11:12:37.502Z,19.72
2017-08-27T11:15:05.036Z,19.92
2017-08-27T11:17:32.593Z,20.08
2017-08-27T11:20:00.168Z,20.22
2017-08-27T11:22:27.652Z,20.30
2017-08-27T11:24:55.195Z,20.29
2017-08-27T11:27:22.726Z,20.47
2017-08-27T11:29:50.276Z,20.44
2017-08-27T11:32:17.911Z,20.44
2017-08-27T11:34:45.500Z,20.47
2017-08-27T11:37:13.021Z,20.37
2017-08-27T11:39:40.558Z,20.30
2017-08-27T11:42:08.143Z,20.27
2017-08-27T11:44:35.673Z,20.26
2017-08-27T11:47:03.219Z,20.25
2017-08-27T11:49:30.773Z,20.53
2017-08-27T11:51:58.392Z,20.64
2017-08-27T11:54:25.933Z,20.82
2017-08-27T11:56:53.584Z,20.99
2017-08-27T11:59:21.505Z,21.02
2017-08-27T12:01:49.023Z,21.04
2017-08-27T12:04:16.609Z,21.18
2017-08-27T12:06:44.272Z,21.20
2017-08-27T12:09:11.831Z,21.20
2017-08-27T12:11:39.400Z,21.19
2017-08-27T12:14:06.973Z,21.31
2017-08-27T12:16:34.446Z,21.30
2017-08-27T12:19:02.024Z,21.37
2017-08-27T12:21:29.513Z,21.46
2017-08-27T12:23:57.059Z,21.54
2017-08-27T12:26:24.628Z,21.57
2017-08-27T12:28:52.118Z,21.61
2017-08-27T12:31:19.648Z,21.59
2017-08-27T12:33:47.282Z,21.68
2017-08-27T12:36:14.808Z,21.68
2017-08-27T12:38:42.377Z,21.70
2017-08-27T12:41:09.958Z,21.83
2017-08-27T12:43:37.521Z,21.87
2017-08-27T12:46:05.164Z,21.99
2017-08-27T12:48:32.743Z,22.06
2017-08-27T12:51:00.227Z,22.15
2017-08-27T12:53:27.716Z,22.33
2017-08-27T12:55:55.317Z,22.43
2017-08-27T12:58:22.811Z,22.55
2017-08-27T13:00:50.374Z,22.56
2017-08-27T13:03:17.941Z,22.65
2017-08-27T13:05:45.455Z,22.76
2017-08-27T13:08:12.950Z,22.72
2017-08-27T13:10:40.540Z,22.75
2017-08-27T13:13:08.097Z,22.80
2017-08-27T13:15:35.623Z,22.90
2017-08-27T13:18:03.182Z,23.07
2017-08-27T13:20:30.717Z,23.17
2017-08-27T13:22:58.254Z,23.31
2017-08-27T13:25:25.835Z,23.33
2017-08-27T13:27:53.376Z,23.37
2017-08-27T13:30:20.870Z,23.34
2017-08-27T13:32:48.489Z,23.39
2017-08-27T13:35:16.037Z,23.44
2017-08-27T13:37:43.563Z,23.51
2017-08-27T13:40:11.164Z,23.59
2017-08-27T13:42:38.675Z,23.69
2017-08-27T13:45:06.191Z,23.92
2017-08-27T13:47:33.776Z,24.17
2017-08-27T13:50:01.288Z,24.28
2017-08-27T13:52:28.802Z,24.36
2017-08-27T13:54:57.049Z,24.40
2017-08-27T13:57:24.563Z,24.52
2017-08-27T13:59:52.075Z,24.52
2017-08-27T14:02:19.615Z,24.50
2017-08-27T14:04:47.140Z,24.61
2017-08-27T14:07:14.618Z,24.75
2017-08-27T14:09:42.179Z,24.85
2017-08-27T14:12:09.708Z,24.85
2017-08-27T14:14:37.241Z,24.88
2017-08-27T14:17:04.769Z,24.94
2017-08-27T14:19:32.295Z,24.82
2017-08-27T14:21:59.831Z,24.87
2017-08-27T14:24:27.437Z,24.94
2017-08-27T14:26:54.969Z,25.20
2017-08-27T14:29:22.496Z,25.80
2017-08-27T14:31:50.023Z,26.08
2017-08-27T14:34:17.887Z,26.17
2017-08-27T14:36:45.370Z,26.18
2017-08-27T14:39:12.967Z,26.33
2017-08-27T14:41:40.471Z,26.57
2017-08-27T14:44:07.962Z,26.96
2017-08-27T14:46:35.492Z,27.03
2017-08-27T14:49:03.020Z,27.25
2017-08-27T14:51:30.584Z,27.32
2017-08-27T14:53:58.105Z,27.31
2017-08-27T14:56:25.638Z,27.37
2017-08-27T14:58:53.168Z,27.28
2017-08-27T15:01:20.780Z,27.29
2017-08-27T15:03:48.332Z,27.28
2017-08-27T15:06:15.813Z,27.42
2017-08-27T15:08:43.388Z,27.59
2017-08-27T15:11:10.901Z,27.59
2017-08-27T15:13:38.514Z,27.60
2017-08-27T15:16:06.032Z,27.68
2017-08-27T15:18:33.636Z,27.77
2017-08-27T15:21:01.188Z,27.77
2017-08-27T15:23:28.768Z,27.80
2017-08-27T15:25:56.324Z,27.80
2017-08-27T15:28:23.948Z,27.83
2017-08-27T15:30:51.474Z,27.94
2017-08-27T15:33:19.081Z,27.95
2017-08-27T15:35:46.621Z,27.96
2017-08-27T15:38:14.246Z,28.10
2017-08-27T15:40:41.757Z,28.15
2017-08-27T15:43:09.277Z,28.28
2017-08-27T15:45:36.843Z,28.45
2017-08-27T15:48:04.366Z,28.50
2017-08-27T15:50:31.916Z,28.53
2017-08-27T15:52:59.482Z,28.56
2017-08-27T15:55:26.995Z,28.61
2017-08-27T15:57:54.545Z,28.63
2017-08-27T16:00:22.690Z,28.65
2017-08-27T16:02:50.211Z,28.65
2017-08-27T16:05:17.718Z,28.66
2017-08-27T16:07:45.330Z,28.76
2017-08-27T16:10:12.911Z,28.87
2017-08-27T16:12:40.392Z,28.97
2017-08-27T16:15:08.603Z,29.02
2017-08-27T16:17:36.140Z,29.03
2017-08-27T16:20:03.683Z,29.06
2017-08-27T16:22:31.283Z,29.07
2017-08-27T16:24:58.843Z,29.13
2017-08-27T16:27:26.350Z,29.33
2017-08-27T16:29:53.923Z,29.39
2017-08-27T16:32:21.432Z,29.52
2017-08-27T16:34:48.978Z,29.63
2017-08-27T16:37:16.515Z,29.78
2017-08-27T16:39:44.476Z,29.89
2017-08-27T16:42:12.039Z,30.02
2017-08-27T16:44:39.620Z,30.10
2017-08-27T16:47:29.835Z,30.25
2017-08-27T16:49:57.413Z,30.39
2017-08-27T16:52:24.896Z,30.52
2017-08-27T16:54:52.492Z,30.64
2017-08-27T16:57:20.184Z,31.05
2017-08-27T16:59:47.760Z,31.27
2017-08-27T17:02:15.254Z,31.63
2017-08-27T17:04:42.796Z,31.89
2017-08-27T17:07:10.372Z,31.94
2017-08-27T17:09:37.913Z,32.07
2017-08-27T17:12:05.502Z,32.17
2017-08-27T17:14:33.034Z,32.14
2017-08-27T17:17:00.558Z,32.25
2017-08-27T17:19:28.116Z,32.28
2017-08-27T17:21:55.652Z,32.79
2017-08-27T17:24:23.212Z,33.12
2017-08-27T17:26:50.810Z,33.07
2017-08-27T17:29:18.367Z,33.01
2017-08-27T17:31:45.896Z,33.14
2017-08-27T17:34:13.450Z,33.40
2017-08-27T17:36:41.099Z,33.73
2017-08-27T17:39:08.630Z,33.97
2017-08-27T17:41:36.168Z,34.09
2017-08-27T17:44:03.710Z,34.07
2017-08-27T17:46:31.214Z,34.18
2017-08-27T17:48:58.749Z,34.43
2017-08-27T17:51:26.254Z,34.46
2017-08-27T17:53:53.812Z,34.67
